sensor_id;sensor_type;location;lat;lon;timestamp;P1;durP1;ratioP1;P2;durP2;ratioP2
23310;SDS011;11828;51.508;18.118;2023-09-18T00:00:51;14.38;;;8.75;;
23310;SDS011;11828;51.508;18.118;2023-09-18T00:03:37;19.10;;;9.65;;
23310;SDS011;11828;51.508;18.118;2023-09-18T00:06:03;13.82;;;8.43;;
23310;SDS011;11828;51.508;18.118;2023-09-18T00:08:31;14.35;;;8.55;;
23310;SDS011;11828;51.508;18.118;2023-09-18T00:10:57;14.80;;;8.77;;
23310;SDS011;11828;51.508;18.118;2023-09-18T00:13:23;16.98;;;9.05;;
23310;SDS011;11828;51.508;18.118;2023-09-18T00:15:49;16.63;;;8.57;;
23310;SDS011;11828;51.508;18.118;2023-09-18T00:18:20;14.45;;;8.00;;
23310;SDS011;11828;51.508;18.118;2023-09-18T00:20:46;13.32;;;8.35;;
23310;SDS011;11828;51.508;18.118;2023-09-18T00:23:13;15.18;;;8.75;;
23310;SDS011;11828;51.508;18.118;2023-09-18T00:25:41;18.52;;;9.65;;
23310;SDS011;11828;51.508;18.118;2023-09-18T00:28:08;15.40;;;9.27;;
23310;SDS011;11828;51.508;18.118;2023-09-18T00:30:34;15.10;;;8.80;;
23310;SDS011;11828;51.508;18.118;2023-09-18T00:33:00;18.38;;;9.85;;
23310;SDS011;11828;51.508;18.118;2023-09-18T00:35:26;18.20;;;9.63;;
23310;SDS011;11828;51.508;18.118;2023-09-18T00:37:52;15.25;;;9.10;;
23310;SDS011;11828;51.508;18.118;2023-09-18T00:40:18;15.75;;;8.63;;
23310;SDS011;11828;51.508;18.118;2023-09-18T00:42:45;14.50;;;9.40;;
23310;SDS011;11828;51.508;18.118;2023-09-18T00:45:11;14.90;;;9.40;;
23310;SDS011;11828;51.508;18.118;2023-09-18T00:47:37;13.73;;;8.95;;
23310;SDS011;11828;51.508;18.118;2023-09-18T00:50:04;20.17;;;9.43;;
23310;SDS011;11828;51.508;18.118;2023-09-18T00:52:35;13.68;;;8.25;;
23310;SDS011;11828;51.508;18.118;2023-09-18T00:55:01;14.57;;;8.75;;
23310;SDS011;11828;51.508;18.118;2023-09-18T00:57:28;13.70;;;8.52;;
23310;SDS011;11828;51.508;18.118;2023-09-18T00:59:54;11.05;;;8.07;;
23310;SDS011;11828;51.508;18.118;2023-09-18T01:02:21;12.32;;;8.13;;
23310;SDS011;11828;51.508;18.118;2023-09-18T01:04:47;11.13;;;7.72;;
23310;SDS011;11828;51.508;18.118;2023-09-18T01:07:15;13.77;;;8.30;;
23310;SDS011;11828;51.508;18.118;2023-09-18T01:09:41;12.30;;;7.72;;
23310;SDS011;11828;51.508;18.118;2023-09-18T01:14:57;12.73;;;8.30;;
23310;SDS011;11828;51.508;18.118;2023-09-18T01:17:35;13.65;;;8.57;;
23310;SDS011;11828;51.508;18.118;2023-09-18T01:20:03;15.50;;;8.82;;
23310;SDS011;11828;51.508;18.118;2023-09-18T01:22:31;15.55;;;8.95;;
23310;SDS011;11828;51.508;18.118;2023-09-18T01:24:57;14.55;;;8.30;;
23310;SDS011;11828;51.508;18.118;2023-09-18T01:27:24;14.93;;;8.50;;
23310;SDS011;11828;51.508;18.118;2023-09-18T01:29:50;13.15;;;8.88;;
23310;SDS011;11828;51.508;18.118;2023-09-18T01:32:16;14.82;;;8.50;;
23310;SDS011;11828;51.508;18.118;2023-09-18T01:34:44;12.43;;;7.90;;
23310;SDS011;11828;51.508;18.118;2023-09-18T01:37:20;18.15;;;9.10;;
23310;SDS011;11828;51.508;18.118;2023-09-18T01:39:50;13.82;;;8.48;;
23310;SDS011;11828;51.508;18.118;2023-09-18T01:42:18;15.68;;;8.70;;
23310;SDS011;11828;51.508;18.118;2023-09-18T01:44:45;11.23;;;7.78;;
23310;SDS011;11828;51.508;18.118;2023-09-18T01:47:18;11.50;;;8.43;;
23310;SDS011;11828;51.508;18.118;2023-09-18T01:49:46;14.02;;;8.73;;
23310;SDS011;11828;51.508;18.118;2023-09-18T01:52:13;17.35;;;8.43;;
23310;SDS011;11828;51.508;18.118;2023-09-18T01:54:39;14.02;;;8.85;;
23310;SDS011;11828;51.508;18.118;2023-09-18T01:57:05;19.33;;;9.15;;
23310;SDS011;11828;51.508;18.118;2023-09-18T01:59:34;14.25;;;9.15;;
23310;SDS011;11828;51.508;18.118;2023-09-18T02:02:01;14.80;;;8.73;;
23310;SDS011;11828;51.508;18.118;2023-09-18T02:04:32;14.55;;;9.00;;
23310;SDS011;11828;51.508;18.118;2023-09-18T02:06:59;11.65;;;7.75;;
23310;SDS011;11828;51.508;18.118;2023-09-18T02:09:25;12.48;;;8.00;;
23310;SDS011;11828;51.508;18.118;2023-09-18T02:11:51;14.15;;;9.02;;
23310;SDS011;11828;51.508;18.118;2023-09-18T02:14:17;14.55;;;8.52;;
23310;SDS011;11828;51.508;18.118;2023-09-18T02:16:43;12.63;;;8.25;;
23310;SDS011;11828;51.508;18.118;2023-09-18T02:19:11;20.60;;;9.48;;
23310;SDS011;11828;51.508;18.118;2023-09-18T02:21:39;13.30;;;8.32;;
23310;SDS011;11828;51.508;18.118;2023-09-18T02:24:06;20.80;;;9.15;;
23310;SDS011;11828;51.508;18.118;2023-09-18T02:26:33;14.32;;;8.10;;
23310;SDS011;11828;51.508;18.118;2023-09-18T02:29:00;15.38;;;7.95;;
23310;SDS011;11828;51.508;18.118;2023-09-18T02:31:30;12.63;;;7.75;;
23310;SDS011;11828;51.508;18.118;2023-09-18T02:33:56;13.00;;;8.30;;
23310;SDS011;11828;51.508;18.118;2023-09-18T02:36:22;19.75;;;8.70;;
23310;SDS011;11828;51.508;18.118;2023-09-18T02:38:48;12.13;;;8.10;;
23310;SDS011;11828;51.508;18.118;2023-09-18T02:41:15;17.48;;;8.55;;
23310;SDS011;11828;51.508;18.118;2023-09-18T02:43:40;14.50;;;8.43;;
23310;SDS011;11828;51.508;18.118;2023-09-18T02:46:07;14.30;;;8.65;;
23310;SDS011;11828;51.508;18.118;2023-09-18T02:48:34;14.13;;;8.45;;
23310;SDS011;11828;51.508;18.118;2023-09-18T02:51:00;16.77;;;8.57;;
23310;SDS011;11828;51.508;18.118;2023-09-18T02:53:27;15.77;;;9.13;;
23310;SDS011;11828;51.508;18.118;2023-09-18T02:55:55;12.40;;;7.80;;
23310;SDS011;11828;51.508;18.118;2023-09-18T02:58:23;13.93;;;8.05;;
23310;SDS011;11828;51.508;18.118;2023-09-18T03:00:51;15.70;;;8.98;;
23310;SDS011;11828;51.508;18.118;2023-09-18T03:03:22;12.23;;;8.43;;
23310;SDS011;11828;51.508;18.118;2023-09-18T03:05:49;21.10;;;10.20;;
23310;SDS011;11828;51.508;18.118;2023-09-18T03:08:15;14.18;;;8.90;;
23310;SDS011;11828;51.508;18.118;2023-09-18T03:10:42;13.40;;;8.80;;
23310;SDS011;11828;51.508;18.118;2023-09-18T03:13:11;12.68;;;8.27;;
23310;SDS011;11828;51.508;18.118;2023-09-18T03:15:40;14.68;;;9.15;;
23310;SDS011;11828;51.508;18.118;2023-09-18T03:18:11;11.95;;;7.90;;
23310;SDS011;11828;51.508;18.118;2023-09-18T03:20:37;14.20;;;8.25;;
23310;SDS011;11828;51.508;18.118;2023-09-18T03:23:03;13.00;;;8.27;;
23310;SDS011;11828;51.508;18.118;2023-09-18T03:25:30;19.42;;;9.10;;
23310;SDS011;11828;51.508;18.118;2023-09-18T03:27:56;16.73;;;8.57;;
23310;SDS011;11828;51.508;18.118;2023-09-18T03:30:23;12.88;;;7.88;;
23310;SDS011;11828;51.508;18.118;2023-09-18T03:32:50;14.25;;;8.13;;
23310;SDS011;11828;51.508;18.118;2023-09-18T03:35:17;14.00;;;8.25;;
23310;SDS011;11828;51.508;18.118;2023-09-18T03:37:44;13.98;;;7.65;;
23310;SDS011;11828;51.508;18.118;2023-09-18T03:40:18;13.35;;;7.28;;
23310;SDS011;11828;51.508;18.118;2023-09-18T03:42:45;11.73;;;7.13;;
23310;SDS011;11828;51.508;18.118;2023-09-18T03:45:12;15.65;;;7.82;;
23310;SDS011;11828;51.508;18.118;2023-09-18T03:47:39;13.43;;;7.85;;
23310;SDS011;11828;51.508;18.118;2023-09-18T03:50:07;18.17;;;8.18;;
23310;SDS011;11828;51.508;18.118;2023-09-18T03:52:35;10.80;;;7.40;;
23310;SDS011;11828;51.508;18.118;2023-09-18T03:55:02;13.32;;;8.02;;
23310;SDS011;11828;51.508;18.118;2023-09-18T03:57:29;13.57;;;8.18;;
23310;SDS011;11828;51.508;18.118;2023-09-18T03:59:55;18.63;;;8.43;;
23310;SDS011;11828;51.508;18.118;2023-09-18T04:02:23;13.25;;;7.90;;
23310;SDS011;11828;51.508;18.118;2023-09-18T04:04:51;13.30;;;7.75;;
23310;SDS011;11828;51.508;18.118;2023-09-18T04:07:18;10.70;;;7.05;;
23310;SDS011;11828;51.508;18.118;2023-09-18T04:09:45;15.85;;;8.05;;
23310;SDS011;11828;51.508;18.118;2023-09-18T04:12:11;30.52;;;9.93;;
23310;SDS011;11828;51.508;18.118;2023-09-18T04:14:38;15.07;;;7.97;;
23310;SDS011;11828;51.508;18.118;2023-09-18T04:17:04;12.32;;;7.60;;
23310;SDS011;11828;51.508;18.118;2023-09-18T04:19:31;14.70;;;8.05;;
23310;SDS011;11828;51.508;18.118;2023-09-18T04:21:57;18.40;;;8.57;;
23310;SDS011;11828;51.508;18.118;2023-09-18T04:24:23;19.00;;;8.70;;
23310;SDS011;11828;51.508;18.118;2023-09-18T04:26:50;12.77;;;7.93;;
23310;SDS011;11828;51.508;18.118;2023-09-18T04:29:17;15.82;;;8.48;;
23310;SDS011;11828;51.508;18.118;2023-09-18T04:31:44;16.20;;;9.13;;
23310;SDS011;11828;51.508;18.118;2023-09-18T04:34:10;18.25;;;9.23;;
23310;SDS011;11828;51.508;18.118;2023-09-18T04:36:37;14.48;;;8.93;;
23310;SDS011;11828;51.508;18.118;2023-09-18T04:39:04;17.75;;;8.98;;
23310;SDS011;11828;51.508;18.118;2023-09-18T04:41:31;18.65;;;9.95;;
23310;SDS011;11828;51.508;18.118;2023-09-18T04:43:58;14.85;;;8.50;;
23310;SDS011;11828;51.508;18.118;2023-09-18T04:46:24;15.27;;;8.57;;
23310;SDS011;11828;51.508;18.118;2023-09-18T04:48:51;18.17;;;9.00;;
23310;SDS011;11828;51.508;18.118;2023-09-18T04:51:17;15.70;;;8.27;;
23310;SDS011;11828;51.508;18.118;2023-09-18T04:53:43;17.17;;;8.60;;
23310;SDS011;11828;51.508;18.118;2023-09-18T04:56:09;14.10;;;9.15;;
23310;SDS011;11828;51.508;18.118;2023-09-18T04:58:36;15.02;;;8.52;;
23310;SDS011;11828;51.508;18.118;2023-09-18T05:01:03;14.55;;;8.75;;
23310;SDS011;11828;51.508;18.118;2023-09-18T05:03:35;22.80;;;9.43;;
23310;SDS011;11828;51.508;18.118;2023-09-18T05:06:02;14.85;;;8.90;;
23310;SDS011;11828;51.508;18.118;2023-09-18T05:08:29;15.15;;;8.98;;
23310;SDS011;11828;51.508;18.118;2023-09-18T05:10:56;14.15;;;8.68;;
23310;SDS011;11828;51.508;18.118;2023-09-18T05:13:23;15.85;;;9.00;;
23310;SDS011;11828;51.508;18.118;2023-09-18T05:15:49;20.63;;;10.13;;
23310;SDS011;11828;51.508;18.118;2023-09-18T05:18:16;13.82;;;9.38;;
23310;SDS011;11828;51.508;18.118;2023-09-18T05:20:41;16.33;;;10.20;;
23310;SDS011;11828;51.508;18.118;2023-09-18T05:23:08;14.95;;;9.35;;
23310;SDS011;11828;51.508;18.118;2023-09-18T05:25:34;16.00;;;9.40;;
23310;SDS011;11828;51.508;18.118;2023-09-18T05:28:03;18.52;;;10.43;;
23310;SDS011;11828;51.508;18.118;2023-09-18T05:30:31;16.73;;;9.93;;
23310;SDS011;11828;51.508;18.118;2023-09-18T05:33:04;17.20;;;10.27;;
23310;SDS011;11828;51.508;18.118;2023-09-18T05:35:42;17.75;;;10.15;;
23310;SDS011;11828;51.508;18.118;2023-09-18T05:38:10;18.65;;;10.65;;
23310;SDS011;11828;51.508;18.118;2023-09-18T05:40:43;16.05;;;9.88;;
23310;SDS011;11828;51.508;18.118;2023-09-18T05:43:10;24.10;;;10.95;;
23310;SDS011;11828;51.508;18.118;2023-09-18T05:45:37;19.92;;;10.40;;
23310;SDS011;11828;51.508;18.118;2023-09-18T05:48:03;17.70;;;10.30;;
23310;SDS011;11828;51.508;18.118;2023-09-18T05:50:30;19.95;;;10.15;;
23310;SDS011;11828;51.508;18.118;2023-09-18T05:52:58;16.58;;;9.73;;
23310;SDS011;11828;51.508;18.118;2023-09-18T05:55:28;18.65;;;10.25;;
23310;SDS011;11828;51.508;18.118;2023-09-18T05:57:55;19.85;;;10.20;;
23310;SDS011;11828;51.508;18.118;2023-09-18T06:00:22;22.85;;;9.98;;
23310;SDS011;11828;51.508;18.118;2023-09-18T06:02:49;15.65;;;9.70;;
23310;SDS011;11828;51.508;18.118;2023-09-18T06:05:16;24.38;;;11.25;;
23310;SDS011;11828;51.508;18.118;2023-09-18T06:07:47;22.23;;;11.80;;
23310;SDS011;11828;51.508;18.118;2023-09-18T06:10:14;18.75;;;10.65;;
23310;SDS011;11828;51.508;18.118;2023-09-18T06:12:40;20.42;;;10.40;;
23310;SDS011;11828;51.508;18.118;2023-09-18T06:15:07;20.10;;;10.50;;
23310;SDS011;11828;51.508;18.118;2023-09-18T06:17:41;23.73;;;11.25;;
23310;SDS011;11828;51.508;18.118;2023-09-18T06:20:09;15.30;;;10.07;;
23310;SDS011;11828;51.508;18.118;2023-09-18T06:22:38;15.88;;;9.75;;
23310;SDS011;11828;51.508;18.118;2023-09-18T06:25:06;18.05;;;11.10;;
23310;SDS011;11828;51.508;18.118;2023-09-18T06:27:36;18.73;;;11.93;;
23310;SDS011;11828;51.508;18.118;2023-09-18T06:30:03;22.75;;;11.50;;
23310;SDS011;11828;51.508;18.118;2023-09-18T06:32:31;19.67;;;10.93;;
23310;SDS011;11828;51.508;18.118;2023-09-18T06:34:57;20.20;;;10.65;;
23310;SDS011;11828;51.508;18.118;2023-09-18T06:37:24;21.05;;;11.75;;
23310;SDS011;11828;51.508;18.118;2023-09-18T06:39:50;20.80;;;12.25;;
23310;SDS011;11828;51.508;18.118;2023-09-18T06:42:17;28.10;;;14.23;;
23310;SDS011;11828;51.508;18.118;2023-09-18T06:44:43;28.83;;;13.55;;
23310;SDS011;11828;51.508;18.118;2023-09-18T06:47:10;20.23;;;11.70;;
23310;SDS011;11828;51.508;18.118;2023-09-18T06:49:37;20.25;;;11.82;;
23310;SDS011;11828;51.508;18.118;2023-09-18T06:52:03;17.25;;;11.20;;
23310;SDS011;11828;51.508;18.118;2023-09-18T06:54:30;18.00;;;10.68;;
23310;SDS011;11828;51.508;18.118;2023-09-18T06:56:56;18.33;;;10.73;;
23310;SDS011;11828;51.508;18.118;2023-09-18T06:59:22;15.60;;;10.55;;
23310;SDS011;11828;51.508;18.118;2023-09-18T07:01:50;13.93;;;10.85;;
23310;SDS011;11828;51.508;18.118;2023-09-18T07:04:16;18.23;;;10.90;;
23310;SDS011;11828;51.508;18.118;2023-09-18T07:06:42;14.63;;;10.73;;
23310;SDS011;11828;51.508;18.118;2023-09-18T07:09:08;14.82;;;10.52;;
23310;SDS011;11828;51.508;18.118;2023-09-18T07:11:37;13.00;;;10.05;;
23310;SDS011;11828;51.508;18.118;2023-09-18T07:14:03;12.93;;;9.35;;
23310;SDS011;11828;51.508;18.118;2023-09-18T07:16:32;12.63;;;9.63;;
23310;SDS011;11828;51.508;18.118;2023-09-18T07:19:02;11.50;;;9.40;;
23310;SDS011;11828;51.508;18.118;2023-09-18T07:21:31;13.32;;;9.93;;
23310;SDS011;11828;51.508;18.118;2023-09-18T07:23:57;11.30;;;9.52;;
23310;SDS011;11828;51.508;18.118;2023-09-18T07:26:23;11.15;;;9.93;;
23310;SDS011;11828;51.508;18.118;2023-09-18T07:28:49;11.13;;;9.93;;
23310;SDS011;11828;51.508;18.118;2023-09-18T07:31:16;11.65;;;10.05;;
23310;SDS011;11828;51.508;18.118;2023-09-18T07:33:42;11.25;;;9.70;;
23310;SDS011;11828;51.508;18.118;2023-09-18T07:36:08;15.60;;;10.73;;
23310;SDS011;11828;51.508;18.118;2023-09-18T07:38:35;11.02;;;9.43;;
23310;SDS011;11828;51.508;18.118;2023-09-18T07:41:05;12.20;;;10.30;;
23310;SDS011;11828;51.508;18.118;2023-09-18T07:43:31;14.95;;;10.95;;
23310;SDS011;11828;51.508;18.118;2023-09-18T07:45:58;12.38;;;10.35;;
23310;SDS011;11828;51.508;18.118;2023-09-18T07:48:25;11.88;;;10.40;;
23310;SDS011;11828;51.508;18.118;2023-09-18T07:50:51;13.18;;;10.05;;
23310;SDS011;11828;51.508;18.118;2023-09-18T07:53:17;11.73;;;9.73;;
23310;SDS011;11828;51.508;18.118;2023-09-18T07:55:44;11.43;;;10.10;;
23310;SDS011;11828;51.508;18.118;2023-09-18T07:58:10;10.00;;;9.00;;
23310;SDS011;11828;51.508;18.118;2023-09-18T08:00:37;10.95;;;9.80;;
23310;SDS011;11828;51.508;18.118;2023-09-18T08:03:03;11.38;;;10.18;;
23310;SDS011;11828;51.508;18.118;2023-09-18T08:05:30;11.02;;;9.82;;
23310;SDS011;11828;51.508;18.118;2023-09-18T08:07:57;18.83;;;13.57;;
23310;SDS011;11828;51.508;18.118;2023-09-18T08:10:25;40.25;;;23.38;;
23310;SDS011;11828;51.508;18.118;2023-09-18T08:12:51;32.58;;;21.75;;
23310;SDS011;11828;51.508;18.118;2023-09-18T08:15:19;22.85;;;15.52;;
23310;SDS011;11828;51.508;18.118;2023-09-18T08:17:46;25.00;;;16.50;;
23310;SDS011;11828;51.508;18.118;2023-09-18T08:20:15;24.02;;;15.63;;
23310;SDS011;11828;51.508;18.118;2023-09-18T08:22:42;13.65;;;11.10;;
23310;SDS011;11828;51.508;18.118;2023-09-18T08:25:10;20.33;;;13.93;;
23310;SDS011;11828;51.508;18.118;2023-09-18T08:27:37;16.63;;;13.48;;
23310;SDS011;11828;51.508;18.118;2023-09-18T08:30:07;24.05;;;17.58;;
23310;SDS011;11828;51.508;18.118;2023-09-18T08:32:35;40.72;;;27.50;;
23310;SDS011;11828;51.508;18.118;2023-09-18T08:35:03;36.03;;;24.27;;
23310;SDS011;11828;51.508;18.118;2023-09-18T08:37:31;15.50;;;11.98;;
23310;SDS011;11828;51.508;18.118;2023-09-18T08:39:57;15.98;;;12.35;;
23310;SDS011;11828;51.508;18.118;2023-09-18T08:42:25;17.73;;;14.73;;
23310;SDS011;11828;51.508;18.118;2023-09-18T08:44:56;18.20;;;12.80;;
23310;SDS011;11828;51.508;18.118;2023-09-18T08:47:25;18.98;;;14.45;;
23310;SDS011;11828;51.508;18.118;2023-09-18T08:49:53;15.20;;;12.60;;
23310;SDS011;11828;51.508;18.118;2023-09-18T08:52:20;14.70;;;12.75;;
23310;SDS011;11828;51.508;18.118;2023-09-18T08:54:47;14.30;;;12.38;;
23310;SDS011;11828;51.508;18.118;2023-09-18T08:57:14;13.40;;;11.88;;
23310;SDS011;11828;51.508;18.118;2023-09-18T08:59:40;11.77;;;10.52;;
23310;SDS011;11828;51.508;18.118;2023-09-18T09:02:08;14.63;;;10.27;;
23310;SDS011;11828;51.508;18.118;2023-09-18T09:04:37;12.07;;;10.70;;
23310;SDS011;11828;51.508;18.118;2023-09-18T09:07:04;11.20;;;10.00;;
23310;SDS011;11828;51.508;18.118;2023-09-18T09:09:30;12.40;;;11.10;;
23310;SDS011;11828;51.508;18.118;2023-09-18T09:11:56;11.90;;;9.98;;
23310;SDS011;11828;51.508;18.118;2023-09-18T09:14:23;11.68;;;10.30;;
23310;SDS011;11828;51.508;18.118;2023-09-18T09:16:58;12.07;;;10.07;;
23310;SDS011;11828;51.508;18.118;2023-09-18T09:19:28;13.52;;;10.52;;
23310;SDS011;11828;51.508;18.118;2023-09-18T09:21:57;17.02;;;11.13;;
23310;SDS011;11828;51.508;18.118;2023-09-18T09:24:36;13.18;;;11.10;;
23310;SDS011;11828;51.508;18.118;2023-09-18T09:27:08;13.50;;;11.57;;
23310;SDS011;11828;51.508;18.118;2023-09-18T09:29:35;12.85;;;11.13;;
23310;SDS011;11828;51.508;18.118;2023-09-18T09:32:12;15.05;;;11.85;;
23310;SDS011;11828;51.508;18.118;2023-09-18T09:34:42;16.13;;;12.00;;
23310;SDS011;11828;51.508;18.118;2023-09-18T09:37:10;13.65;;;11.05;;
23310;SDS011;11828;51.508;18.118;2023-09-18T09:39:46;14.65;;;11.27;;
23310;SDS011;11828;51.508;18.118;2023-09-18T09:42:16;14.38;;;11.13;;
23310;SDS011;11828;51.508;18.118;2023-09-18T09:45:03;14.45;;;11.48;;
23310;SDS011;11828;51.508;18.118;2023-09-18T09:47:37;15.48;;;11.00;;
23310;SDS011;11828;51.508;18.118;2023-09-18T09:50:21;14.63;;;11.60;;
23310;SDS011;11828;51.508;18.118;2023-09-18T09:52:48;13.10;;;11.50;;
23310;SDS011;11828;51.508;18.118;2023-09-18T09:57:58;16.73;;;11.90;;
23310;SDS011;11828;51.508;18.118;2023-09-18T10:03:09;15.10;;;11.27;;
23310;SDS011;11828;51.508;18.118;2023-09-18T10:05:38;16.15;;;11.88;;
23310;SDS011;11828;51.508;18.118;2023-09-18T10:08:19;18.95;;;12.18;;
23310;SDS011;11828;51.508;18.118;2023-09-18T10:10:49;16.27;;;11.23;;
23310;SDS011;11828;51.508;18.118;2023-09-18T10:13:18;15.60;;;11.25;;
23310;SDS011;11828;51.508;18.118;2023-09-18T10:16:06;15.70;;;10.95;;
23310;SDS011;11828;51.508;18.118;2023-09-18T10:18:49;15.38;;;11.93;;
23310;SDS011;11828;51.508;18.118;2023-09-18T10:21:30;14.10;;;11.23;;
23310;SDS011;11828;51.508;18.118;2023-09-18T10:24:20;17.23;;;11.23;;
23310;SDS011;11828;51.508;18.118;2023-09-18T10:29:24;14.45;;;11.10;;
23310;SDS011;11828;51.508;18.118;2023-09-18T10:31:52;18.08;;;11.63;;
23310;SDS011;11828;51.508;18.118;2023-09-18T10:34:19;14.48;;;11.30;;
23310;SDS011;11828;51.508;18.118;2023-09-18T10:36:48;15.50;;;11.38;;
23310;SDS011;11828;51.508;18.118;2023-09-18T10:39:16;18.33;;;12.70;;
23310;SDS011;11828;51.508;18.118;2023-09-18T10:41:51;21.42;;;11.98;;
23310;SDS011;11828;51.508;18.118;2023-09-18T10:44:19;18.05;;;11.60;;
23310;SDS011;11828;51.508;18.118;2023-09-18T10:46:46;17.77;;;11.70;;
23310;SDS011;11828;51.508;18.118;2023-09-18T10:49:14;18.45;;;12.13;;
23310;SDS011;11828;51.508;18.118;2023-09-18T10:51:41;20.45;;;12.27;;
23310;SDS011;11828;51.508;18.118;2023-09-18T10:54:09;16.17;;;11.15;;
23310;SDS011;11828;51.508;18.118;2023-09-18T10:56:36;17.30;;;11.75;;
23310;SDS011;11828;51.508;18.118;2023-09-18T10:59:05;20.17;;;11.70;;
23310;SDS011;11828;51.508;18.118;2023-09-18T11:01:34;16.63;;;11.68;;
23310;SDS011;11828;51.508;18.118;2023-09-18T11:04:05;14.38;;;11.48;;
23310;SDS011;11828;51.508;18.118;2023-09-18T11:07:00;16.65;;;12.02;;
23310;SDS011;11828;51.508;18.118;2023-09-18T11:09:32;15.65;;;11.60;;
23310;SDS011;11828;51.508;18.118;2023-09-18T11:12:11;18.67;;;11.90;;
23310;SDS011;11828;51.508;18.118;2023-09-18T11:14:41;15.52;;;11.43;;
23310;SDS011;11828;51.508;18.118;2023-09-18T11:20:18;16.13;;;11.88;;
23310;SDS011;11828;51.508;18.118;2023-09-18T11:22:57;19.38;;;13.18;;
23310;SDS011;11828;51.508;18.118;2023-09-18T11:25:28;19.30;;;12.43;;
23310;SDS011;11828;51.508;18.118;2023-09-18T11:28:01;16.88;;;11.82;;
23310;SDS011;11828;51.508;18.118;2023-09-18T11:30:28;18.20;;;12.20;;
23310;SDS011;11828;51.508;18.118;2023-09-18T11:32:55;23.10;;;13.07;;
23310;SDS011;11828;51.508;18.118;2023-09-18T11:35:22;16.35;;;12.30;;
23310;SDS011;11828;51.508;18.118;2023-09-18T11:38:02;19.77;;;12.20;;
23310;SDS011;11828;51.508;18.118;2023-09-18T11:40:34;16.88;;;12.30;;
23310;SDS011;11828;51.508;18.118;2023-09-18T11:43:23;17.55;;;12.73;;
23310;SDS011;11828;51.508;18.118;2023-09-18T11:45:58;19.20;;;12.30;;
23310;SDS011;11828;51.508;18.118;2023-09-18T11:48:27;18.48;;;12.90;;
23310;SDS011;11828;51.508;18.118;2023-09-18T11:50:57;17.67;;;12.65;;
23310;SDS011;11828;51.508;18.118;2023-09-18T11:53:28;18.73;;;12.73;;
23310;SDS011;11828;51.508;18.118;2023-09-18T11:55:59;15.90;;;12.48;;
23310;SDS011;11828;51.508;18.118;2023-09-18T11:58:26;16.02;;;11.57;;
23310;SDS011;11828;51.508;18.118;2023-09-18T12:00:52;17.13;;;13.43;;
23310;SDS011;11828;51.508;18.118;2023-09-18T12:03:20;19.20;;;12.77;;
23310;SDS011;11828;51.508;18.118;2023-09-18T12:06:12;18.23;;;13.30;;
23310;SDS011;11828;51.508;18.118;2023-09-18T12:08:41;18.35;;;12.70;;
23310;SDS011;11828;51.508;18.118;2023-09-18T12:11:07;17.20;;;12.80;;
23310;SDS011;11828;51.508;18.118;2023-09-18T12:13:34;16.50;;;12.70;;
23310;SDS011;11828;51.508;18.118;2023-09-18T12:16:03;16.60;;;12.90;;
23310;SDS011;11828;51.508;18.118;2023-09-18T12:18:35;19.02;;;13.27;;
23310;SDS011;11828;51.508;18.118;2023-09-18T12:21:05;22.50;;;14.18;;
23310;SDS011;11828;51.508;18.118;2023-09-18T12:23:39;20.70;;;13.88;;
23310;SDS011;11828;51.508;18.118;2023-09-18T12:26:05;20.52;;;13.90;;
23310;SDS011;11828;51.508;18.118;2023-09-18T12:28:33;29.25;;;16.98;;
23310;SDS011;11828;51.508;18.118;2023-09-18T12:31:02;21.15;;;13.80;;
23310;SDS011;11828;51.508;18.118;2023-09-18T12:33:35;21.88;;;13.15;;
23310;SDS011;11828;51.508;18.118;2023-09-18T12:36:03;18.98;;;12.27;;
23310;SDS011;11828;51.508;18.118;2023-09-18T12:38:30;17.00;;;12.88;;
23310;SDS011;11828;51.508;18.118;2023-09-18T12:40:57;18.58;;;12.50;;
23310;SDS011;11828;51.508;18.118;2023-09-18T12:43:38;15.55;;;11.60;;
23310;SDS011;11828;51.508;18.118;2023-09-18T12:46:06;20.10;;;12.25;;
23310;SDS011;11828;51.508;18.118;2023-09-18T12:48:37;18.05;;;12.07;;
23310;SDS011;11828;51.508;18.118;2023-09-18T12:51:07;14.70;;;11.40;;
23310;SDS011;11828;51.508;18.118;2023-09-18T12:53:33;14.52;;;11.88;;
23310;SDS011;11828;51.508;18.118;2023-09-18T12:56:09;16.95;;;12.25;;
23310;SDS011;11828;51.508;18.118;2023-09-18T12:58:40;16.95;;;12.45;;
23310;SDS011;11828;51.508;18.118;2023-09-18T13:01:10;19.52;;;12.40;;
23310;SDS011;11828;51.508;18.118;2023-09-18T13:03:44;15.80;;;11.63;;
23310;SDS011;11828;51.508;18.118;2023-09-18T13:06:17;18.23;;;12.57;;
23310;SDS011;11828;51.508;18.118;2023-09-18T13:08:45;21.45;;;12.05;;
23310;SDS011;11828;51.508;18.118;2023-09-18T13:11:12;20.52;;;13.40;;
23310;SDS011;11828;51.508;18.118;2023-09-18T13:13:40;23.20;;;12.75;;
23310;SDS011;11828;51.508;18.118;2023-09-18T13:16:07;17.83;;;12.63;;
23310;SDS011;11828;51.508;18.118;2023-09-18T13:18:37;18.17;;;12.57;;
23310;SDS011;11828;51.508;18.118;2023-09-18T13:21:10;22.73;;;13.35;;
23310;SDS011;11828;51.508;18.118;2023-09-18T13:23:38;25.48;;;13.73;;
23310;SDS011;11828;51.508;18.118;2023-09-18T13:26:04;27.45;;;13.77;;
23310;SDS011;11828;51.508;18.118;2023-09-18T13:28:36;17.45;;;12.05;;
23310;SDS011;11828;51.508;18.118;2023-09-18T13:31:02;21.98;;;12.48;;
23310;SDS011;11828;51.508;18.118;2023-09-18T13:33:30;18.58;;;11.95;;
23310;SDS011;11828;51.508;18.118;2023-09-18T13:35:58;22.92;;;12.55;;
23310;SDS011;11828;51.508;18.118;2023-09-18T13:38:25;18.90;;;11.68;;
23310;SDS011;11828;51.508;18.118;2023-09-18T13:40:54;23.20;;;12.70;;
23310;SDS011;11828;51.508;18.118;2023-09-18T13:43:20;24.13;;;13.20;;
23310;SDS011;11828;51.508;18.118;2023-09-18T13:45:47;21.42;;;12.90;;
23310;SDS011;11828;51.508;18.118;2023-09-18T13:48:17;23.40;;;14.00;;
23310;SDS011;11828;51.508;18.118;2023-09-18T13:50:43;18.90;;;13.13;;
23310;SDS011;11828;51.508;18.118;2023-09-18T13:53:12;24.83;;;13.23;;
23310;SDS011;11828;51.508;18.118;2023-09-18T13:55:39;22.23;;;12.90;;
23310;SDS011;11828;51.508;18.118;2023-09-18T13:58:05;23.25;;;14.02;;
23310;SDS011;11828;51.508;18.118;2023-09-18T14:00:31;20.17;;;12.60;;
23310;SDS011;11828;51.508;18.118;2023-09-18T14:02:58;24.15;;;13.43;;
23310;SDS011;11828;51.508;18.118;2023-09-18T14:05:25;19.40;;;13.27;;
23310;SDS011;11828;51.508;18.118;2023-09-18T14:07:52;22.30;;;13.00;;
23310;SDS011;11828;51.508;18.118;2023-09-18T14:10:25;19.50;;;12.70;;
23310;SDS011;11828;51.508;18.118;2023-09-18T14:12:52;24.08;;;13.32;;
23310;SDS011;11828;51.508;18.118;2023-09-18T14:15:18;18.38;;;13.20;;
23310;SDS011;11828;51.508;18.118;2023-09-18T14:17:44;27.52;;;13.75;;
23310;SDS011;11828;51.508;18.118;2023-09-18T14:20:10;21.63;;;13.20;;
23310;SDS011;11828;51.508;18.118;2023-09-18T14:22:37;24.67;;;13.23;;
23310;SDS011;11828;51.508;18.118;2023-09-18T14:25:05;18.17;;;12.63;;
23310;SDS011;11828;51.508;18.118;2023-09-18T14:27:32;22.33;;;13.88;;
23310;SDS011;11828;51.508;18.118;2023-09-18T14:30:00;17.42;;;12.48;;
23310;SDS011;11828;51.508;18.118;2023-09-18T14:32:29;25.90;;;13.68;;
23310;SDS011;11828;51.508;18.118;2023-09-18T14:34:55;19.35;;;12.75;;